Time;durP1;ratioP1;P1;durP2;ratioP2;P2;SDS_P1;SDS_P2;PMS_P1;PMS_P2;Temp;Humidity;BMP_temperature;BMP_pressure;BME280_temperature;BME280_humidity;BME280_pressure;Samples;Min_cycle;Max_cycle;Signal;HPM_P1;HPM_P2
2022/06/28 00:00:35;;;;;;;9.18;1.50;;;26.70;99.90;;;;;;4933811;29;20048;-53
2022/06/28 00:03:01;;;;;;;12.43;1.40;;;26.70;99.90;;;;;;4932945;29;20032;-52
2022/06/28 00:05:26;;;;;;;8.05;2.40;;;26.60;99.90;;;;;;4954624;29;20062;-50
2022/06/28 00:07:52;;;;;;;7.70;1.13;;;26.70;99.90;;;;;;4951319;29;20086;-52
2022/06/28 00:10:18;;;;;;;10.90;2.15;;;26.60;99.90;;;;;;4954854;29;20028;-52
2022/06/28 00:12:44;;;;;;;8.02;1.73;;;26.60;99.90;;;;;;4954347;29;20061;-51
2022/06/28 00:17:57;;;;;;;;;;;26.60;99.90;;;;;;4955533;29;20026;-49
2022/06/28 00:20:23;;;;;;;5.03;1.60;;;26.60;99.90;;;;;;4937244;29;19910;-51
2022/06/28 00:22:49;;;;;;;4.50;1.30;;;26.50;99.90;;;;;;4954611;29;20030;-50
2022/06/28 00:25:15;;;;;;;6.53;1.30;;;26.50;99.90;;;;;;4954461;29;20500;-51
2022/06/28 00:27:41;;;;;;;6.13;1.50;;;26.50;99.90;;;;;;4938607;29;20482;-49
2022/06/28 00:30:08;;;;;;;10.77;1.85;;;26.50;99.90;;;;;;4941337;29;20035;-50
2022/06/28 00:32:34;;;;;;;8.15;2.00;;;26.50;99.90;;;;;;4926078;29;20035;-51
2022/06/28 00:35:00;;;;;;;13.77;2.22;;;26.50;99.90;;;;;;4940894;29;20076;-49
2022/06/28 00:37:27;;;;;;;7.45;1.33;;;26.50;99.90;;;;;;4940455;29;20026;-50
2022/06/28 00:39:53;;;;;;;7.97;1.30;;;26.50;99.90;;;;;;4943388;29;20106;-51
2022/06/28 00:42:19;;;;;;;7.55;1.92;;;26.50;99.90;;;;;;4940257;29;20146;-51
2022/06/28 00:44:46;;;;;;;9.07;1.48;;;26.50;99.90;;;;;;4952229;29;20536;-50
2022/06/28 00:47:13;;;;;;;20.20;2.50;;;26.50;99.90;;;;;;4931091;29;20024;-53
2022/06/28 00:49:42;;;;;;;11.63;2.80;;;26.40;99.90;;;;;;4936662;29;20039;-51
2022/06/28 00:52:10;;;;;;;14.10;3.42;;;26.30;99.90;;;;;;4950530;29;20031;-50
2022/06/28 00:54:36;;;;;;;18.73;4.13;;;25.90;99.90;;;;;;4943653;29;20069;-51
2022/06/28 00:57:03;;;;;;;27.02;4.78;;;25.60;99.90;;;;;;4937730;29;20024;-52
2022/06/28 00:59:29;;;;;;;18.67;4.15;;;25.30;99.90;;;;;;4949927;29;20074;-52
2022/06/28 01:01:57;;;;;;;21.45;4.55;;;25.10;99.90;;;;;;4954150;29;20191;-51
2022/06/28 01:04:23;;;;;;;15.68;3.85;;;24.80;99.90;;;;;;4939159;29;20035;-52
2022/06/28 01:06:49;;;;;;;20.40;4.57;;;24.60;99.90;;;;;;4945244;29;20401;-51
2022/06/28 01:09:14;;;;;;;19.63;4.55;;;24.60;99.90;;;;;;4946499;29;20047;-51
2022/06/28 01:11:40;;;;;;;17.63;4.85;;;24.50;99.90;;;;;;4929766;29;20027;-51
2022/06/28 01:14:07;;;;;;;19.98;3.67;;;24.50;99.90;;;;;;4935999;29;20027;-50
2022/06/28 01:16:34;;;;;;;21.55;4.05;;;24.60;99.90;;;;;;4951254;29;20031;-52
2022/06/28 01:19:00;;;;;;;18.30;3.70;;;24.60;99.90;;;;;;4953334;29;20045;-51
2022/06/28 01:21:27;;;;;;;14.23;3.33;;;24.70;99.90;;;;;;4935862;29;20483;-51
2022/06/28 01:23:54;;;;;;;9.15;3.72;;;24.70;99.90;;;;;;4953181;29;20034;-51
2022/06/28 01:26:21;;;;;;;12.82;3.13;;;24.70;99.90;;;;;;4952938;29;20051;-51
2022/06/28 01:28:48;;;;;;;20.15;4.18;;;24.70;99.90;;;;;;4953083;29;20038;-51
2022/06/28 01:31:14;;;;;;;;;;;24.70;99.90;;;;;;4953546;29;20015;-51
2022/06/28 01:33:40;;;;;;;17.70;3.78;;;24.60;99.90;;;;;;4952691;29;20348;-51
2022/06/28 01:36:08;;;;;;;16.17;2.90;;;24.40;99.90;;;;;;4951533;29;20027;-51
2022/06/28 01:38:34;;;;;;;11.80;3.45;;;24.30;99.90;;;;;;4952067;29;20027;-51
2022/06/28 01:41:01;;;;;;;21.55;4.22;;;24.30;99.90;;;;;;4953125;29;20035;-52
2022/06/28 01:43:29;;;;;;;18.73;3.55;;;24.20;99.90;;;;;;4953127;29;20023;-51
2022/06/28 01:45:57;;;;;;;13.80;3.22;;;24.00;99.90;;;;;;4952820;28;20023;-51
2022/06/28 01:48:22;;;;;;;16.00;4.20;;;24.00;99.90;;;;;;4952600;29;20035;-51
2022/06/28 01:50:49;;;;;;;16.60;4.22;;;23.90;99.90;;;;;;4952879;29;20039;-51
2022/06/28 01:53:15;;;;;;;20.15;4.32;;;23.90;99.90;;;;;;4945883;29;20062;-50
2022/06/28 01:55:42;;;;;;;19.95;3.85;;;23.80;99.90;;;;;;4946323;29;20457;-51
2022/06/28 01:58:09;;;;;;;17.73;4.20;;;23.70;99.90;;;;;;4952660;29;20492;-51
2022/06/28 02:00:35;;;;;;;12.35;3.38;;;23.70;99.90;;;;;;4979505;23;20069;-58
2022/06/28 02:03:01;;;;;;;18.27;4.70;;;23.70;99.90;;;;;;4971546;28;20031;-57
2022/06/28 02:05:28;;;;;;;15.95;2.80;;;23.70;99.90;;;;;;4970812;28;20487;-57
2022/06/28 02:07:55;;;;;;;19.50;3.25;;;23.60;99.90;;;;;;4970389;28;20264;-58
2022/06/28 02:10:21;;;;;;;19.97;3.97;;;23.70;99.90;;;;;;4970532;28;20393;-58
2022/06/28 02:12:47;;;;;;;11.65;2.55;;;23.60;99.90;;;;;;4970480;28;20038;-57
2022/06/28 02:15:16;;;;;;;15.52;3.65;;;23.60;99.90;;;;;;4953215;28;20023;-57
2022/06/28 02:17:43;;;;;;;15.70;3.63;;;23.60;99.90;;;;;;4970392;28;20481;-58
2022/06/28 02:20:12;;;;;;;19.08;3.92;;;23.60;99.90;;;;;;4970273;28;20066;-58
2022/06/28 02:22:38;;;;;;;18.30;3.58;;;23.60;99.90;;;;;;4971802;28;20037;-58
2022/06/28 02:25:04;;;;;;;12.73;3.92;;;23.70;99.90;;;;;;4955097;28;20396;-59
2022/06/28 02:27:30;;;;;;;19.67;3.45;;;23.70;99.90;;;;;;4972330;28;20031;-57
2022/06/28 02:29:55;;;;;;;9.65;3.17;;;23.60;99.90;;;;;;4972238;28;20114;-58
2022/06/28 02:32:21;;;;;;;16.23;3.40;;;23.60;99.90;;;;;;4972214;28;20050;-58
2022/06/28 02:40:21;;;;;;;15.73;3.55;;;23.60;99.90;;;;;;4972241;28;20049;-57
2022/06/28 02:42:55;;;;;;;18.02;3.25;;;23.60;99.90;;;;;;4972045;28;20030;-57
2022/06/28 02:45:22;;;;;;;15.45;3.30;;;23.60;99.90;;;;;;4972069;28;20026;-56
2022/06/28 02:47:48;;;;;;;23.88;3.92;;;23.50;99.90;;;;;;4972172;28;20030;-56
2022/06/28 02:50:14;;;;;;;17.17;3.65;;;23.50;99.90;;;;;;4971994;28;20023;-56
2022/06/28 02:52:40;;;;;;;14.35;4.13;;;23.50;99.90;;;;;;4971831;28;20027;-55
2022/06/28 02:55:08;;;;;;;21.13;4.05;;;23.50;99.90;;;;;;4970845;28;20488;-59
2022/06/28 02:57:34;;;;;;;16.45;3.63;;;23.50;99.90;;;;;;4972420;28;20485;-59
2022/06/28 03:00:02;;;;;;;13.07;2.97;;;23.50;99.90;;;;;;4958655;23;20052;-51
2022/06/28 03:02:28;;;;;;;14.38;3.60;;;23.50;99.90;;;;;;4918111;29;20047;-51
2022/06/28 03:04:53;;;;;;;12.75;3.03;;;23.50;99.90;;;;;;4917963;29;20036;-51
2022/06/28 03:07:19;;;;;;;15.18;2.90;;;23.50;99.90;;;;;;4918090;29;20036;-51
2022/06/28 03:09:45;;;;;;;17.65;3.85;;;23.50;99.90;;;;;;4917982;29;20065;-51
2022/06/28 03:12:11;;;;;;;13.00;2.85;;;23.50;99.90;;;;;;4918071;29;20028;-51
2022/06/28 03:14:36;;;;;;;14.15;2.97;;;23.50;99.90;;;;;;4918128;29;20028;-51
2022/06/28 03:17:02;;;;;;;14.23;3.45;;;23.60;99.90;;;;;;4918079;29;20028;-51
2022/06/28 03:19:28;;;;;;;15.50;2.72;;;23.50;99.90;;;;;;4917830;29;20036;-51
2022/06/28 03:21:54;;;;;;;13.88;3.08;;;23.50;99.90;;;;;;4917877;29;20028;-51
2022/06/28 03:24:19;;;;;;;12.82;3.05;;;23.50;99.90;;;;;;4917609;29;20031;-52
2022/06/28 03:26:45;;;;;;;14.88;2.88;;;23.50;99.90;;;;;;4917774;29;20036;-52
2022/06/28 03:29:11;;;;;;;11.70;2.38;;;23.50;99.90;;;;;;4916460;29;20039;-52
2022/06/28 03:31:37;;;;;;;13.07;2.47;;;23.50;99.90;;;;;;4917835;29;20032;-51
2022/06/28 03:34:03;;;;;;;17.17;3.10;;;23.50;99.90;;;;;;4917680;29;20032;-52
2022/06/28 03:36:29;;;;;;;17.83;4.05;;;23.50;99.90;;;;;;4917631;29;20344;-52
2022/06/28 03:38:55;;;;;;;11.18;2.60;;;23.40;99.90;;;;;;4917386;29;20066;-51
2022/06/28 03:41:24;;;;;;;12.55;2.83;;;23.40;99.90;;;;;;4917445;29;20028;-52
2022/06/28 03:43:53;;;;;;;14.93;3.80;;;23.50;99.90;;;;;;4917506;29;20042;-52
2022/06/28 03:46:20;;;;;;;11.63;2.72;;;23.50;99.90;;;;;;4917333;29;20020;-52
2022/06/28 03:48:46;;;;;;;15.90;3.03;;;23.50;99.90;;;;;;4917200;29;20062;-51
2022/06/28 03:51:13;;;;;;;9.93;3.13;;;23.50;99.90;;;;;;4917369;29;20542;-51
2022/06/28 03:53:39;;;;;;;9.82;3.20;;;23.50;99.90;;;;;;4917159;29;20043;-52
2022/06/28 03:56:05;;;;;;;15.05;3.22;;;23.50;99.90;;;;;;4917415;29;20359;-52
2022/06/28 03:58:32;;;;;;;17.00;3.17;;;23.50;99.90;;;;;;4916985;29;20037;-52
2022/06/28 04:00:57;;;;;;;17.42;3.10;;;23.50;99.90;;;;;;4931471;29;20461;-52
2022/06/28 04:03:23;;;;;;;14.32;2.92;;;23.50;99.90;;;;;;4936033;29;20031;-52
2022/06/28 04:05:49;;;;;;;13.20;2.85;;;23.50;99.90;;;;;;4934716;29;20074;-51
2022/06/28 04:08:15;;;;;;;12.43;3.00;;;23.50;99.90;;;;;;4935942;29;20150;-51
2022/06/28 04:10:41;;;;;;;14.05;2.85;;;23.50;99.90;;;;;;4935430;29;20102;-52
2022/06/28 04:13:06;;;;;;;13.25;3.17;;;23.50;99.90;;;;;;4936245;29;20051;-52
2022/06/28 04:15:32;;;;;;;16.15;3.15;;;23.50;99.90;;;;;;4935780;29;20024;-52
2022/06/28 04:17:58;;;;;;;11.13;2.47;;;23.40;99.90;;;;;;4935620;29;20024;-52
2022/06/28 04:20:24;;;;;;;16.58;4.13;;;23.50;99.90;;;;;;4935877;29;20482;-52
2022/06/28 04:22:50;;;;;;;16.83;3.03;;;23.50;99.90;;;;;;4935529;29;20512;-52
2022/06/28 04:25:16;;;;;;;12.43;3.08;;;23.50;99.90;;;;;;4935486;29;20042;-52
2022/06/28 04:27:42;;;;;;;11.93;2.45;;;23.50;99.90;;;;;;4935587;29;20023;-52
2022/06/28 04:30:08;;;;;;;13.70;3.20;;;23.50;99.90;;;;;;4935646;29;20478;-52
2022/06/28 04:32:34;;;;;;;15.82;3.15;;;23.50;99.90;;;;;;4935536;29;20151;-52
2022/06/28 04:34:59;;;;;;;10.90;2.90;;;23.50;99.90;;;;;;4935452;29;20110;-51
2022/06/28 04:37:25;;;;;;;13.77;2.92;;;23.50;99.90;;;;;;4935360;29;20541;-52
2022/06/28 04:39:51;;;;;;;11.45;2.40;;;23.40;99.90;;;;;;4935347;29;20072;-51
2022/06/28 04:42:18;;;;;;;17.88;3.05;;;23.40;99.90;;;;;;4935336;29;20039;-52
2022/06/28 04:44:44;;;;;;;9.63;2.50;;;23.40;99.90;;;;;;4935361;29;20031;-51
2022/06/28 04:47:10;;;;;;;11.20;2.67;;;23.40;99.90;;;;;;4935490;29;20034;-52
2022/06/28 04:49:36;;;;;;;16.33;3.33;;;23.40;99.90;;;;;;4935578;29;20024;-58
2022/06/28 04:52:01;;;;;;;10.90;2.58;;;23.40;99.90;;;;;;4934986;29;20502;-52
2022/06/28 04:54:27;;;;;;;12.05;2.60;;;23.40;99.90;;;;;;4935190;29;20031;-51
2022/06/28 04:56:53;;;;;;;15.55;3.22;;;23.40;99.90;;;;;;4917945;29;20027;-51
2022/06/28 04:59:19;;;;;;;13.85;3.22;;;23.40;99.90;;;;;;4934801;29;20114;-51
2022/06/28 05:01:45;;;;;;;9.68;2.67;;;23.40;99.90;;;;;;4935045;29;20059;-51
2022/06/28 05:04:11;;;;;;;16.50;2.88;;;23.40;99.90;;;;;;4935166;29;20027;-51
2022/06/28 05:06:37;;;;;;;14.60;2.90;;;23.40;99.90;;;;;;4935166;29;20024;-51
2022/06/28 05:09:03;;;;;;;9.93;3.20;;;23.40;99.90;;;;;;4934858;29;20028;-51
2022/06/28 05:11:29;;;;;;;15.65;3.17;;;23.40;99.90;;;;;;4934806;29;20050;-51
2022/06/28 05:13:55;;;;;;;14.55;2.80;;;23.40;99.90;;;;;;4934775;29;20024;-51
2022/06/28 05:16:21;;;;;;;11.60;2.70;;;23.40;99.90;;;;;;4934422;29;20086;-51
2022/06/28 05:18:47;;;;;;;14.57;3.00;;;23.40;99.90;;;;;;4934607;29;20485;-51
2022/06/28 05:21:13;;;;;;;14.82;3.47;;;23.40;99.90;;;;;;4934132;29;20023;-51
2022/06/28 05:23:39;;;;;;;14.63;2.95;;;23.40;99.90;;;;;;4917599;29;20039;-51
2022/06/28 05:26:04;;;;;;;14.93;3.53;;;23.40;99.90;;;;;;4934556;29;20167;-51
2022/06/28 05:28:30;;;;;;;10.90;2.80;;;23.30;99.90;;;;;;4934407;29;20028;-51
2022/06/28 05:30:56;;;;;;;10.98;2.75;;;23.30;99.90;;;;;;4934460;29;20028;-51
2022/06/28 05:33:22;;;;;;;14.75;3.50;;;23.30;99.90;;;;;;4934539;29;20027;-51
2022/06/28 05:35:49;;;;;;;14.80;3.00;;;23.30;99.90;;;;;;4934496;29;20154;-51
2022/06/28 05:38:15;;;;;;;9.83;2.97;;;23.30;99.90;;;;;;4917606;29;20019;-51
2022/06/28 05:40:41;;;;;;;18.73;3.50;;;23.30;99.90;;;;;;4934441;29;20043;-50
2022/06/28 05:43:07;;;;;;;18.30;2.97;;;23.30;99.90;;;;;;4934293;29;20019;-51
2022/06/28 05:45:32;;;;;;;15.88;2.88;;;23.30;99.90;;;;;;4934189;29;20031;-51
2022/06/28 05:47:58;;;;;;;22.42;4.28;;;23.30;99.90;;;;;;4934307;29;20389;-50
2022/06/28 05:50:24;;;;;;;18.15;5.95;;;23.30;99.90;;;;;;4934131;29;20032;-50
2022/06/28 05:52:51;;;;;;;23.90;4.65;;;23.20;99.90;;;;;;4934106;29;20028;-51
2022/06/28 05:55:17;;;;;;;12.43;3.80;;;23.30;99.90;;;;;;4934160;29;20035;-51
2022/06/28 05:57:43;;;;;;;13.60;3.45;;;23.30;99.90;;;;;;4934246;29;20038;-51
2022/06/28 06:00:09;;;;;;;18.85;4.18;;;23.30;99.90;;;;;;4933805;29;20051;-51
2022/06/28 06:02:35;;;;;;;17.92;3.72;;;23.30;99.90;;;;;;4934004;29;20039;-51
2022/06/28 06:05:02;;;;;;;16.88;3.67;;;23.30;99.90;;;;;;4933989;29;20486;-51
2022/06/28 06:07:29;;;;;;;14.82;3.65;;;23.30;99.90;;;;;;4934034;29;20473;-51
2022/06/28 06:09:55;;;;;;;20.17;4.10;;;23.30;99.90;;;;;;4933982;29;20036;-51
2022/06/28 06:12:21;;;;;;;16.98;3.67;;;23.30;99.90;;;;;;4933851;29;20144;-51
2022/06/28 06:14:47;;;;;;;17.45;4.85;;;23.30;99.90;;;;;;4933735;29;20126;-51
2022/06/28 06:17:13;;;;;;;13.80;3.20;;;23.30;99.90;;;;;;4933968;29;20031;-51
2022/06/28 06:19:39;;;;;;;14.00;3.28;;;23.20;99.90;;;;;;4933781;29;20048;-50
2022/06/28 06:22:04;;;;;;;15.30;4.03;;;23.30;99.90;;;;;;4933767;29;20028;-51
2022/06/28 06:24:30;;;;;;;14.35;4.30;;;23.30;99.90;;;;;;4933903;29;20182;-50
2022/06/28 06:26:56;;;;;;;23.92;3.85;;;23.30;99.90;;;;;;4933770;29;20426;-50
2022/06/28 06:29:22;;;;;;;12.30;3.33;;;23.30;99.90;;;;;;4933649;29;20031;-51
2022/06/28 06:31:48;;;;;;;13.55;3.90;;;23.30;99.90;;;;;;4933708;29;20027;-51
2022/06/28 06:34:14;;;;;;;19.75;4.03;;;23.30;99.90;;;;;;4937037;29;20115;-52
2022/06/28 06:36:41;;;;;;;18.80;6.40;;;23.30;99.90;;;;;;4937624;29;20418;-52
2022/06/28 06:39:07;;;;;;;16.10;4.00;;;23.30;99.90;;;;;;4937371;29;20039;-51
2022/06/28 06:41:33;;;;;;;14.77;3.27;;;23.30;99.90;;;;;;4937419;29;20039;-51
2022/06/28 06:44:00;;;;;;;15.45;3.95;;;23.40;99.90;;;;;;4937409;29;20106;-51
2022/06/28 06:46:25;;;;;;;23.50;4.30;;;23.40;99.90;;;;;;4936046;29;20028;-51
2022/06/28 06:48:52;;;;;;;17.95;7.85;;;23.40;99.90;;;;;;4937258;29;20031;-51
2022/06/28 06:51:18;;;;;;;16.77;4.95;;;23.40;99.90;;;;;;4920450;29;20023;-50
2022/06/28 06:53:44;;;;;;;19.30;4.80;;;23.50;99.90;;;;;;4937304;29;20421;-51
2022/06/28 06:56:10;;;;;;;15.68;4.20;;;23.50;99.90;;;;;;4937069;29;20059;-50
2022/06/28 06:58:36;;;;;;;17.52;4.50;;;23.50;99.90;;;;;;4937096;29;20452;-50
2022/06/28 07:01:02;;;;;;;13.68;4.00;;;23.60;99.90;;;;;;4937058;29;20131;-51
2022/06/28 07:03:28;;;;;;;18.27;4.38;;;23.50;99.90;;;;;;4936801;29;20036;-51
2022/06/28 07:05:54;;;;;;;17.95;4.05;;;23.60;99.90;;;;;;4937107;29;20533;-51
2022/06/28 07:08:21;;;;;;;16.50;4.00;;;23.60;99.90;;;;;;4919834;29;20067;-50
2022/06/28 07:10:46;;;;;;;15.85;4.15;;;23.70;99.90;;;;;;4937154;29;20032;-52
2022/06/28 07:13:12;;;;;;;21.00;4.22;;;23.70;99.90;;;;;;4919965;29;20034;-51
2022/06/28 07:15:38;;;;;;;13.95;3.88;;;23.70;99.90;;;;;;4936935;29;20044;-51
2022/06/28 07:18:04;;;;;;;16.95;3.83;;;23.70;99.90;;;;;;4919786;29;20028;-52
2022/06/28 07:20:30;;;;;;;13.38;3.60;;;23.80;99.90;;;;;;4936737;29;20031;-52
2022/06/28 07:22:56;;;;;;;15.43;3.10;;;23.80;99.90;;;;;;4936749;29;20039;-51
2022/06/28 07:25:22;;;;;;;16.10;3.45;;;23.80;99.90;;;;;;4936643;29;20038;-51
2022/06/28 07:27:47;;;;;;;19.88;4.47;;;23.80;99.90;;;;;;4936802;29;20027;-50
2022/06/28 07:30:13;;;;;;;13.55;3.67;;;23.90;99.90;;;;;;4936467;29;20061;-51
2022/06/28 07:32:39;;;;;;;16.85;3.30;;;23.90;99.90;;;;;;4936564;29;20031;-51
2022/06/28 07:35:06;;;;;;;14.95;3.92;;;23.90;99.90;;;;;;4936439;29;20490;-50
2022/06/28 07:37:32;;;;;;;16.60;3.92;;;24.00;99.90;;;;;;4936407;29;20063;-52
2022/06/28 07:39:58;;;;;;;23.30;3.80;;;24.00;99.90;;;;;;4936333;29;20119;-52
2022/06/28 07:42:24;;;;;;;17.20;3.63;;;24.00;99.90;;;;;;4936286;29;20098;-51
2022/06/28 07:44:50;;;;;;;18.52;4.07;;;24.00;99.90;;;;;;4935466;29;20035;-52
2022/06/28 07:47:16;;;;;;;16.67;4.57;;;24.10;99.90;;;;;;4936459;29;20027;-51
2022/06/28 07:52:36;;;;;;;17.75;5.03;;;24.20;99.90;;;;;;4936423;29;20034;-52
2022/06/28 07:55:04;;;;;;;21.80;4.75;;;24.20;99.90;;;;;;4936257;29;20020;-52
2022/06/28 07:57:29;;;;;;;14.95;4.72;;;24.20;99.90;;;;;;4936116;29;20552;-52
2022/06/28 07:59:55;;;;;;;12.50;3.53;;;24.30;99.90;;;;;;4935955;29;20059;-53
2022/06/28 08:02:23;;;;;;;17.45;4.32;;;24.30;99.90;;;;;;4936045;29;20028;-53
2022/06/28 08:04:49;;;;;;;13.25;3.65;;;24.30;99.90;;;;;;4936056;29;20016;-53
2022/06/28 08:07:15;;;;;;;13.98;3.97;;;24.40;99.90;;;;;;4936000;29;20040;-53
2022/06/28 08:09:41;;;;;;;19.48;3.80;;;24.50;99.90;;;;;;4936073;29;20094;-53
2022/06/28 08:12:07;;;;;;;12.55;3.58;;;24.50;99.90;;;;;;4935832;29;20111;-53
2022/06/28 08:14:33;;;;;;;17.70;3.53;;;24.50;99.90;;;;;;4935845;29;20056;-53
2022/06/28 08:16:59;;;;;;;15.27;4.05;;;24.50;99.90;;;;;;4935701;29;20034;-53
2022/06/28 08:19:25;;;;;;;15.73;3.50;;;24.50;99.90;;;;;;4935678;29;20035;-53
2022/06/28 08:21:51;;;;;;;14.48;4.20;;;24.50;99.90;;;;;;4935939;29;20454;-53
2022/06/28 08:24:17;;;;;;;22.70;4.18;;;24.60;99.90;;;;;;4935483;29;20027;-53
2022/06/28 08:26:44;;;;;;;14.82;4.03;;;24.60;99.90;;;;;;4935621;29;20485;-53
2022/06/28 08:29:10;;;;;;;14.50;4.82;;;24.70;99.90;;;;;;4918439;29;20060;-53
2022/06/28 08:31:36;;;;;;;21.30;4.47;;;24.70;99.90;;;;;;4935517;29;20035;-53
2022/06/28 08:34:02;;;;;;;16.02;4.82;;;24.70;99.90;;;;;;4935500;29;20050;-53
2022/06/28 08:36:28;;;;;;;13.35;4.20;;;24.70;99.90;;;;;;4935325;29;20454;-53
2022/06/28 08:38:54;;;;;;;12.88;2.92;;;24.70;99.90;;;;;;4935334;29;20063;-52
2022/06/28 08:41:21;;;;;;;14.90;3.92;;;24.90;99.90;;;;;;4935367;29;20109;-52
2022/06/28 08:43:46;;;;;;;11.45;3.38;;;24.90;99.90;;;;;;4935324;29;20400;-53
2022/06/28 08:46:14;;;;;;;20.70;4.00;;;25.00;99.90;;;;;;4935201;29;20039;-52
2022/06/28 08:48:42;;;;;;;13.98;3.75;;;25.00;99.90;;;;;;4935076;29;20032;-52
2022/06/28 08:51:10;;;;;;;11.40;4.10;;;25.00;99.90;;;;;;4935153;29;20114;-52
2022/06/28 08:53:40;;;;;;;;;;;25.00;99.90;;;;;;4934117;29;20049;-52
2022/06/28 08:56:08;;;;;;;14.23;3.75;;;25.00;99.90;;;;;;4934609;29;20383;-52
2022/06/28 08:58:34;;;;;;;19.58;4.63;;;25.10;99.90;;;;;;4934980;29;20039;-51
2022/06/28 09:01:00;;;;;;;12.50;2.90;;;25.10;99.90;;;;;;4934805;29;20059;-52
2022/06/28 09:03:26;;;;;;;10.73;3.03;;;25.10;99.90;;;;;;4934811;29;20016;-52
2022/06/28 09:05:52;;;;;;;12.80;4.03;;;25.20;99.90;;;;;;4935198;29;20039;-52
2022/06/28 09:08:17;;;;;;;10.38;3.20;;;25.20;99.90;;;;;;4934688;29;20379;-52
2022/06/28 09:10:44;;;;;;;16.00;3.55;;;25.30;99.90;;;;;;4934792;29;20059;-52
2022/06/28 09:13:13;;;;;;;10.45;3.42;;;25.30;99.90;;;;;;4935073;29;20098;-52
2022/06/28 09:15:59;;;;;;;14.95;4.40;;;25.30;99.90;;;;;;4934636;29;20038;-52
2022/06/28 09:18:34;;;;;;;14.30;3.63;;;25.40;99.90;;;;;;4933292;29;20564;-52
2022/06/28 09:21:01;;;;;;;19.20;3.28;;;25.50;99.90;;;;;;4934342;29;20071;-52
2022/06/28 09:23:33;;;;;;;17.65;3.42;;;25.50;99.90;;;;;;4934641;29;20500;-53
2022/06/28 09:26:07;;;;;;;17.38;3.38;;;25.50;99.90;;;;;;4933371;29;20390;-53
2022/06/28 09:28:35;;;;;;;14.77;2.90;;;25.60;99.90;;;;;;4934416;29;20047;-53
2022/06/28 09:31:19;;;;;;;21.55;3.67;;;25.60;99.90;;;;;;4934544;29;20033;-52
2022/06/28 09:33:53;;;;;;;16.25;2.72;;;25.70;99.90;;;;;;4934408;29;20035;-52
2022/06/28 09:36:19;;;;;;;16.58;3.90;;;25.70;99.90;;;;;;4934422;29;20243;-53
2022/06/28 09:38:45;;;;;;;14.45;3.80;;;25.70;99.90;;;;;;4934214;29;20091;-53
2022/06/28 09:41:28;;;;;;;13.13;3.03;;;25.70;99.90;;;;;;4933216;29;20054;-53
2022/06/28 09:44:07;;;;;;;9.27;3.83;;;25.70;99.90;;;;;;4938522;29;20027;-52
2022/06/28 09:46:33;;;;;;;15.35;3.80;;;25.80;99.90;;;;;;4951432;29;20207;-53
2022/06/28 09:49:05;;;;;;;15.02;3.45;;;25.80;99.90;;;;;;4949156;29;20566;-52
2022/06/28 09:51:34;;;;;;;12.07;3.08;;;25.80;99.90;;;;;;4931839;29;20110;-52
2022/06/28 09:54:03;;;;;;;16.30;3.75;;;25.80;99.90;;;;;;4933235;29;20030;-52
2022/06/28 09:56:33;;;;;;;18.10;3.53;;;25.80;99.90;;;;;;4946740;29;20062;-52
2022/06/28 09:59:00;;;;;;;8.48;2.80;;;25.80;99.90;;;;;;4952892;29;20044;-52
2022/06/28 10:01:26;;;;;;;13.43;3.97;;;25.70;99.90;;;;;;4952801;29;20134;-52
2022/06/28 10:03:53;;;;;;;11.57;3.40;;;25.70;99.90;;;;;;4949918;29;20082;-52
2022/06/28 10:06:21;;;;;;;16.23;3.42;;;25.70;99.90;;;;;;4933203;29;20107;-52
2022/06/28 10:08:47;;;;;;;17.55;3.92;;;25.80;99.90;;;;;;4933983;29;20031;-50
2022/06/28 10:11:14;;;;;;;11.55;3.42;;;25.80;99.90;;;;;;4953319;29;20107;-49
2022/06/28 10:16:57;;;;;;;17.50;4.28;;;25.90;99.90;;;;;;4953105;29;20034;-51
2022/06/28 10:19:25;;;;;;;12.45;4.68;;;25.70;99.90;;;;;;4952597;29;20450;-51
2022/06/28 10:21:57;;;;;;;13.63;3.58;;;25.80;99.90;;;;;;4952903;29;20041;-51
2022/06/28 10:24:43;;;;;;;12.70;4.28;;;25.80;99.90;;;;;;4947255;29;20023;-51
2022/06/28 10:27:13;;;;;;;15.05;3.33;;;25.90;99.90;;;;;;4952640;29;20110;-50
2022/06/28 10:30:14;;;;;;;15.80;3.90;;;25.90;99.90;;;;;;4934527;29;20453;-51
2022/06/28 10:32:51;;;;;;;12.45;3.70;;;25.90;99.90;;;;;;4911532;29;20107;-51
2022/06/28 10:35:28;;;;;;;18.85;3.90;;;25.90;99.90;;;;;;4932764;29;20027;-51
2022/06/28 10:38:09;;;;;;;12.90;3.45;;;26.00;99.90;;;;;;4932762;29;20040;-51
2022/06/28 10:40:38;;;;;;;13.10;4.75;;;26.10;99.90;;;;;;4932636;29;20044;-51
2022/06/28 10:43:04;;;;;;;15.38;4.13;;;26.00;99.90;;;;;;4931240;29;20028;-51
2022/06/28 10:46:05;;;;;;;17.45;3.42;;;26.00;99.90;;;;;;4933491;29;20478;-51
2022/06/28 10:48:50;;;;;;;14.82;2.97;;;26.00;99.90;;;;;;4933507;29;20083;-51
2022/06/28 10:51:17;;;;;;;10.95;3.97;;;26.10;99.90;;;;;;4933759;29;20051;-52
2022/06/28 10:53:59;;;;;;;14.48;3.22;;;26.20;99.90;;;;;;4933824;29;20027;-51
2022/06/28 10:56:25;;;;;;;12.82;3.80;;;26.00;99.90;;;;;;4932285;29;20039;-50
2022/06/28 10:59:04;;;;;;;11.52;3.05;;;25.90;99.90;;;;;;4933301;29;20031;-52
2022/06/28 11:01:44;;;;;;;12.45;3.50;;;25.90;99.90;;;;;;4933470;29;20044;-52
2022/06/28 11:04:19;;;;;;;12.00;3.38;;;26.00;99.90;;;;;;4933404;29;20685;-52
2022/06/28 11:07:18;;;;;;;13.57;3.20;;;26.20;99.90;;;;;;4933625;29;20031;-52
2022/06/28 11:10:00;;;;;;;13.10;3.42;;;26.30;99.90;;;;;;4930564;29;20040;-52
2022/06/28 11:12:31;;;;;;;14.25;3.38;;;26.30;99.90;;;;;;4933352;29;20031;-52
2022/06/28 11:15:03;;;;;;;12.65;2.97;;;26.30;99.90;;;;;;4933410;29;20502;-52
2022/06/28 11:17:30;;;;;;;16.42;4.03;;;26.40;99.90;;;;;;4933362;29;20050;-52
2022/06/28 11:20:02;;;;;;;13.20;3.55;;;26.40;99.90;;;;;;4918587;29;20383;-52
2022/06/28 11:22:36;;;;;;;13.20;3.67;;;26.50;99.90;;;;;;4936604;29;20023;-52
2022/06/28 11:25:05;;;;;;;10.57;3.03;;;26.40;99.90;;;;;;4936785;29;20099;-52
2022/06/28 11:27:32;;;;;;;13.50;3.50;;;26.20;99.90;;;;;;4936659;29;20024;-52
2022/06/28 11:30:00;;;;;;;9.07;3.78;;;26.10;99.90;;;;;;4936590;29;20019;-52
2022/06/28 11:32:32;;;;;;;14.82;3.30;;;26.10;99.90;;;;;;4936533;29;20063;-52
2022/06/28 11:35:16;;;;;;;13.73;3.38;;;26.10;99.90;;;;;;4936363;29;20028;-51
2022/06/28 11:38:03;;;;;;;14.38;3.72;;;26.00;99.90;;;;;;4936401;29;20470;-52
2022/06/28 11:40:49;;;;;;;9.90;3.35;;;26.00;99.90;;;;;;4936116;29;20039;-52
2022/06/28 11:43:25;;;;;;;14.07;3.95;;;26.00;99.90;;;;;;4936512;29;20183;-52
2022/06/28 11:45:52;;;;;;;14.20;3.83;;;26.00;99.90;;;;;;4936333;29;20366;-52
2022/06/28 11:48:22;;;;;;;20.43;4.30;;;26.10;99.90;;;;;;4936536;29;20107;-52
2022/06/28 11:50:53;;;;;;;17.67;4.70;;;26.10;99.90;;;;;;4936390;29;20024;-52
2022/06/28 11:53:19;;;;;;;11.05;3.15;;;26.10;99.90;;;;;;4936591;29;20119;-52
2022/06/28 11:55:58;;;;;;;19.73;4.78;;;26.00;99.90;;;;;;4936442;29;20041;-51
2022/06/28 11:58:26;;;;;;;18.80;3.95;;;26.00;99.90;;;;;;4936159;29;20386;-51
2022/06/28 12:01:13;;;;;;;14.93;3.90;;;26.10;99.90;;;;;;4936086;29;20059;-51
2022/06/28 12:03:42;;;;;;;10.30;3.33;;;26.00;99.90;;;;;;4936096;29;20032;-52
2022/06/28 12:06:23;;;;;;;13.98;4.03;;;26.00;99.90;;;;;;4934657;29;20051;-52
2022/06/28 12:08:56;;;;;;;16.23;3.88;;;26.10;99.90;;;;;;4936032;29;20028;-52
2022/06/28 12:11:36;;;;;;;15.45;4.28;;;26.10;99.90;;;;;;4936098;29;20024;-51
2022/06/28 12:14:18;;;;;;;19.85;4.68;;;26.10;99.90;;;;;;4935842;29;20034;-52
2022/06/28 12:16:57;;;;;;;16.67;4.18;;;26.10;99.90;;;;;;4935814;29;20113;-52
2022/06/28 12:19:31;;;;;;;12.65;3.35;;;26.20;99.90;;;;;;4935794;29;20532;-51
2022/06/28 12:22:01;;;;;;;14.85;4.90;;;26.30;99.90;;;;;;4935777;29;20070;-51
2022/06/28 12:24:46;;;;;;;15.80;3.75;;;26.30;99.90;;;;;;4935696;29;20090;-52
2022/06/28 12:27:17;;;;;;;13.10;4.32;;;26.10;99.90;;;;;;4935802;29;20056;-52
2022/06/28 12:29:44;;;;;;;12.70;3.78;;;26.00;99.90;;;;;;4935584;29;20039;-52
2022/06/28 12:32:11;;;;;;;10.33;4.00;;;26.10;99.90;;;;;;4935244;29;20024;-51
2022/06/28 12:34:39;;;;;;;12.30;3.75;;;26.10;99.90;;;;;;4935636;29;20024;-52
2022/06/28 12:37:08;;;;;;;13.30;3.88;;;25.90;99.90;;;;;;4934250;29;20390;-52
2022/06/28 12:39:34;;;;;;;15.18;3.67;;;25.80;99.90;;;;;;4935432;29;20063;-52
2022/06/28 12:42:00;;;;;;;14.55;3.40;;;25.80;99.90;;;;;;4935400;29;20103;-52
2022/06/28 12:44:26;;;;;;;8.70;3.70;;;25.90;99.90;;;;;;4935319;29;20569;-52
2022/06/28 12:46:52;;;;;;;13.82;4.13;;;26.00;99.90;;;;;;4935371;29;20034;-52
2022/06/28 12:49:19;;;;;;;12.98;4.05;;;26.10;99.90;;;;;;4934238;29;20027;-52
2022/06/28 12:51:45;;;;;;;16.43;5.40;;;26.10;99.90;;;;;;4935176;29;20039;-52
2022/06/28 12:54:11;;;;;;;14.93;4.18;;;26.20;99.90;;;;;;4935194;29;20458;-53
2022/06/28 12:56:36;;;;;;;13.25;2.80;;;26.10;99.90;;;;;;4935093;29;20119;-52